Simcha — PE7688 — position and weather

sailwx.info

Track history (hours):
 
Tides and Currents Weather Stations Pressure Air Temp Water Temp Dewpoint Dewpoint Depression Visibility Wind Speed Wind Dir Waves Ship Positions

Simcha

Last reported at 2014-Sep-02 16:19 UTC. Time now 2014-Sep-02 19:06 UTC.
Position N 51°27' E 004°14'.

Length 110 m.

Type: Ship. MMSI: 244780014.

Date/timePositionNaut miles runAvg speedWind from/ knotsBaromVisibWave heightAir tempDewpointWater temp
2014-Sep-02 16:19N 51°27' E 004°14'11 5.7
2014-Sep-02 14:23N 51°16' E 004°21'2 2.3
2014-Sep-02 13:33N 51°15' E 004°22'0 0.0
2014-Sep-02 12:33N 51°15' E 004°22'0 0.2
2014-Sep-02 11:33N 51°15' E 004°22'0 0.0
2014-Sep-02 10:30N 51°15' E 004°22'0 0.0
2014-Sep-02 09:33N 51°15' E 004°22'0 0.0
2014-Sep-02 08:33N 51°15' E 004°22'0 0.0
2014-Sep-02 07:33N 51°15' E 004°22'0 0.0
2014-Sep-02 06:33N 51°15' E 004°22'0 0.0
2014-Sep-02 05:33N 51°15' E 004°22'0 0.0
2014-Sep-02 04:33N 51°15' E 004°22'0 0.0
2014-Sep-02 03:33N 51°15' E 004°22'0 0.0
2014-Sep-02 02:33N 51°15' E 004°22'0 0.0
2014-Sep-02 01:33N 51°15' E 004°22'0 0.0
2014-Sep-02 00:33N 51°15' E 004°22'2 1.5
2014-Sep-01 23:33N 51°16' E 004°20'31 5.1
2014-Sep-01 17:33N 51°44' E 004°42'8 8.4
2014-Sep-01 16:33N 51°49' E 004°53'8 8.4
2014-Sep-01 15:33N 51°49' E 005°06'9 8.7
2014-Sep-01 14:34N 51°49' E 005°20'63 3.3
2014-Aug-31 19:26N 51°13' E 006°45'  
Track history (hours):
 
Tides and Currents Weather Stations Pressure Air Temp Water Temp Dewpoint Dewpoint Depression Visibility Wind Speed Wind Dir Waves Ship Positions

Simcha

Last reported at 2014-Sep-02 16:19 UTC. Time now 2014-Sep-02 19:06 UTC.
Position N 51°27' E 004°14'.

Length 110 m.

Type: Ship. MMSI: 244780014.

Date/timePositionNaut miles runAvg speedWind from/ knotsBaromVisibWave heightAir tempDewpointWater temp
2014-Sep-02 16:19N 51°27' E 004°14'11 5.7
2014-Sep-02 14:23N 51°16' E 004°21'2 2.3
2014-Sep-02 13:33N 51°15' E 004°22'0 0.0
2014-Sep-02 12:33N 51°15' E 004°22'0 0.2
2014-Sep-02 11:33N 51°15' E 004°22'0 0.0
2014-Sep-02 10:30N 51°15' E 004°22'0 0.0
2014-Sep-02 09:33N 51°15' E 004°22'0 0.0
2014-Sep-02 08:33N 51°15' E 004°22'0 0.0
2014-Sep-02 07:33N 51°15' E 004°22'0 0.0
2014-Sep-02 06:33N 51°15' E 004°22'0 0.0
2014-Sep-02 05:33N 51°15' E 004°22'0 0.0
2014-Sep-02 04:33N 51°15' E 004°22'0 0.0
2014-Sep-02 03:33N 51°15' E 004°22'0 0.0
2014-Sep-02 02:33N 51°15' E 004°22'0 0.0
2014-Sep-02 01:33N 51°15' E 004°22'0 0.0
2014-Sep-02 00:33N 51°15' E 004°22'2 1.5
2014-Sep-01 23:33N 51°16' E 004°20'31 5.1
2014-Sep-01 17:33N 51°44' E 004°42'8 8.4
2014-Sep-01 16:33N 51°49' E 004°53'8 8.4
2014-Sep-01 15:33N 51°49' E 005°06'9 8.7
2014-Sep-01 14:34N 51°49' E 005°20'63 3.3
2014-Aug-31 19:26N 51°13' E 006°45'  

Dump ship's entire track history